createdAt,value
2023-05-21T00:14:58.036Z,75992.06
2023-05-21T00:22:34.413Z,76004.31
2023-05-21T00:30:09.539Z,76002.28
2023-05-21T00:37:46.073Z,76006.34
2023-05-21T00:45:20.581Z,76024.72
2023-05-21T00:52:55.935Z,76030.84
2023-05-21T01:00:30.020Z,76045.13
2023-05-21T01:15:59.549Z,76041.06
2023-05-21T01:23:35.672Z,76036.97
2023-05-21T01:31:23.715Z,76045.13
2023-05-21T01:39:03.971Z,76053.28
2023-05-21T01:46:40.193Z,76063.50
2023-05-21T01:54:15.959Z,76071.66
2023-05-21T02:01:50.530Z,76065.53
2023-05-21T02:09:25.852Z,76073.72
2023-05-21T02:24:52.371Z,76073.72
2023-05-21T02:32:26.317Z,76083.91
2023-05-21T02:40:02.520Z,76090.03
2023-05-21T02:47:37.446Z,76100.25
2023-05-21T02:55:12.966Z,76106.38
2023-05-21T03:02:47.124Z,76116.56
2023-05-21T03:10:22.629Z,76126.78
2023-05-21T03:17:57.223Z,76124.72
2023-05-21T03:25:32.740Z,76126.78
2023-05-21T03:33:06.939Z,76130.84
2023-05-21T03:40:42.384Z,76134.94
2023-05-21T03:48:16.420Z,76132.91
2023-05-21T03:55:55.513Z,76128.81
2023-05-21T04:03:29.858Z,76132.91
2023-05-21T04:11:05.264Z,76132.91
2023-05-21T04:18:39.360Z,76118.59
2023-05-21T04:26:16.225Z,76114.53
2023-05-21T04:33:50.951Z,76098.19
2023-05-21T04:41:26.219Z,76079.81
2023-05-21T04:49:02.842Z,76053.28
2023-05-21T04:56:38.025Z,76032.88
2023-05-21T05:04:12.442Z,76004.31
2023-05-21T05:11:47.637Z,75983.91
2023-05-21T05:19:22.480Z,75967.59
2023-05-21T05:26:57.706Z,75945.13
2023-05-21T05:34:32.461Z,75926.75
2023-05-21T05:42:07.850Z,75890.03
2023-05-21T05:49:42.345Z,75871.66
2023-05-21T05:57:17.819Z,75859.41
2023-05-21T06:04:52.075Z,75836.97
2023-05-21T06:12:27.798Z,75816.56
2023-05-21T06:28:55.465Z,75779.81
2023-05-21T06:44:23.080Z,75724.72
2023-05-21T06:59:49.742Z,75651.25
2023-05-21T07:07:23.622Z,75600.25
2023-05-21T07:14:59.498Z,75545.16
2023-05-21T07:22:33.396Z,75514.53
2023-05-21T07:30:11.157Z,75477.81
2023-05-21T07:45:38.129Z,75379.88
2023-05-21T08:01:04.719Z,75263.56
2023-05-21T08:08:38.654Z,75192.13
2023-05-21T08:16:13.865Z,75145.22
2023-05-21T08:23:47.687Z,75081.97
2023-05-21T08:31:22.922Z,75033.00
2023-05-21T08:38:56.783Z,74975.88
2023-05-21T08:46:34.987Z,74924.84
2023-05-21T08:54:39.934Z,74922.81
2023-05-21T09:02:15.473Z,74873.84
2023-05-21T09:09:56.295Z,74855.50
2023-05-21T09:17:31.430Z,74845.28
2023-05-21T09:25:09.399Z,74804.47
2023-05-21T09:32:46.133Z,74755.53
2023-05-21T09:40:21.290Z,74726.97
2023-05-21T09:47:57.931Z,74700.44
2023-05-21T09:55:32.116Z,74645.34
2023-05-21T10:03:11.038Z,74610.66
2023-05-21T10:10:45.942Z,74571.91
2023-05-21T10:18:23.418Z,74559.66
2023-05-21T10:25:57.926Z,74533.16
2023-05-21T10:33:33.536Z,74549.47
2023-05-21T10:50:30.864Z,74531.09
2023-05-21T10:58:37.280Z,74553.56
2023-05-21T11:06:12.589Z,74525.00
2023-05-21T11:13:48.763Z,74498.47
2023-05-21T11:21:26.256Z,74451.56
2023-05-21T11:29:09.662Z,74433.19
2023-05-21T11:36:47.074Z,74400.56
2023-05-21T11:44:39.175Z,74425.03
2023-05-21T11:52:15.197Z,74402.59
2023-05-21T11:59:51.273Z,74412.78
2023-05-21T12:07:28.510Z,74414.84
2023-05-21T12:15:03.085Z,74396.47
2023-05-21T12:22:43.057Z,74404.63
2023-05-21T12:30:16.905Z,74380.16
2023-05-21T12:37:52.220Z,74345.47
2023-05-21T12:45:26.532Z,74367.91
2023-05-21T12:53:01.697Z,74378.13
2023-05-21T13:00:35.955Z,74380.16
2023-05-21T13:08:13.764Z,74327.13
2023-05-21T13:15:47.634Z,74329.16
2023-05-21T13:23:22.728Z,74335.28
2023-05-21T13:30:56.685Z,74329.16
2023-05-21T13:38:31.911Z,74310.78
2023-05-21T13:46:05.968Z,74327.13
2023-05-21T13:53:41.104Z,74349.56
2023-05-21T14:01:14.905Z,74357.72
2023-05-21T14:08:50.036Z,74347.50
2023-05-21T14:16:24.936Z,74329.16
2023-05-21T14:24:00.191Z,74331.19
2023-05-21T14:40:28.759Z,74359.75
2023-05-21T14:48:03.199Z,74341.41
2023-05-21T14:55:38.840Z,74331.19
2023-05-21T15:03:13.521Z,74349.56
2023-05-21T15:10:48.767Z,74357.72
2023-05-21T15:18:24.606Z,74325.06
2023-05-21T15:25:59.817Z,74353.63
2023-05-21T15:33:33.597Z,74355.69
2023-05-21T15:41:08.921Z,74327.13
2023-05-21T15:48:42.737Z,74337.31
2023-05-21T16:05:11.195Z,74331.19
2023-05-21T16:12:45.106Z,74347.50
2023-05-21T16:20:21.758Z,74339.34
2023-05-21T16:27:57.569Z,74347.50
2023-05-21T16:35:32.970Z,74353.63
2023-05-21T16:43:07.176Z,74378.13
2023-05-21T16:50:42.375Z,74404.63
2023-05-21T16:58:16.431Z,74431.16
2023-05-21T17:05:52.932Z,74451.56
2023-05-21T17:13:26.812Z,74469.91
2023-05-21T17:21:02.270Z,74484.19
2023-05-21T17:28:36.535Z,74506.63
2023-05-21T17:36:11.754Z,74537.22
2023-05-21T17:43:45.614Z,74569.88
2023-05-21T17:51:21.049Z,74608.63
2023-05-21T17:58:55.099Z,74622.91
2023-05-21T18:06:31.258Z,74639.22
2023-05-21T18:14:05.153Z,74657.59
2023-05-21T18:21:40.523Z,74669.84
2023-05-21T18:29:15.121Z,74690.22
2023-05-21T18:36:50.689Z,74702.47
2023-05-21T18:44:24.503Z,74722.88
2023-05-21T18:51:59.808Z,74739.19
2023-05-21T18:59:35.328Z,74763.69
2023-05-21T19:07:10.954Z,74775.91
2023-05-21T19:14:45.187Z,74804.47
2023-05-21T19:22:20.495Z,74822.84
2023-05-21T19:29:54.611Z,74839.16
2023-05-21T19:37:29.705Z,74859.56
2023-05-21T19:45:04.332Z,74877.94
2023-05-21T19:52:39.997Z,74892.22
2023-05-21T20:00:15.843Z,74906.50
2023-05-21T20:07:51.056Z,74926.91
2023-05-21T20:15:24.888Z,74941.19
2023-05-21T20:23:03.145Z,74953.41
2023-05-21T20:30:53.400Z,74959.53
2023-05-21T20:38:32.381Z,74959.53
2023-05-21T20:46:06.298Z,74975.88
2023-05-21T20:53:41.515Z,74979.94
2023-05-21T21:01:17.593Z,74992.19
2023-05-21T21:08:55.502Z,75000.34
2023-05-21T21:25:24.330Z,75028.91
2023-05-21T21:32:58.505Z,75039.09
2023-05-21T21:40:33.849Z,75061.56
2023-05-21T21:48:08.355Z,75081.97
2023-05-21T21:55:43.617Z,75092.16
2023-05-21T22:03:17.386Z,75110.53
2023-05-21T22:10:52.593Z,75124.81
2023-05-21T22:18:39.647Z,75145.22
2023-05-21T22:26:16.044Z,75161.53
2023-05-21T22:33:49.919Z,75186.03
2023-05-21T22:41:25.418Z,75204.38
2023-05-21T22:49:00.399Z,75212.53
2023-05-21T22:56:36.162Z,75243.16
2023-05-21T23:04:10.595Z,75253.34
2023-05-21T23:11:45.891Z,75259.47
2023-05-21T23:19:19.944Z,75277.84
2023-05-21T23:26:56.791Z,75292.13
2023-05-21T23:34:30.871Z,75296.19
2023-05-21T23:42:07.042Z,75298.25
2023-05-21T23:49:40.974Z,75310.47
2023-05-21T23:57:16.284Z,75314.56
